| Record Date MM/DD/YYYY | Record Julian Date NNN day of the year | Air Temperature Max (Degrees Fahrenheit F) | Time Max Air Temperature HH:MM:SS This is the time of max air temperature standard time. | Air Temperature Min (Degrees Fahrenheit F) | Time Min Air Temperature HH:MM:SS This is the time of min air temperature standard time. | Air Temperature Observed (Degrees Fahrenheit F) This is an instantaneous reading for air temperature at 7:00:00 standard time. | Relative Humidity Max (Percent) | Time Max Relative Humidity HH:MM:SS This is the time of max relative humidity standard time. | Relative Humidity Min (Percent) | Time Min Relative Humidity HH:MM:SS This is the time of min relative humidity standard time. | Relative Humidity Observed (Percent) This is an instantaneous reading at 7:00:00 standard time. | Precipitation (Inches n.nn) total rain fall that occurred for the day. | Pan Evaporation (Inches n.nn) total evaporation that occured for the day. | Wind Run (Miles) Wind travel for the day. | Wind Speed (Miles Per Hour) Resultant / Average speed for the day. | Wind Direction (Degrees) Resultant Direction for the day | Solar Radiation (Langley's) that occurred for the day. | Soil Temperature Max at 2 inch depth (Degrees Fahrenheit F) that occurred during the day. | Time Max Soil temperature at 2 inches HH:MM:SS This is the time of max 2 inch soil temperature standard time. | Soil Temperature Min at 2 inch depth (Degrees Fahrenheit F) that occurred during the day. | Time Min Soil temperature at 2 inches HH:MM:SS This is the time of min 2 inch soil temperature standard time. | Soil Temperature Observed at 2 inch depth (Degrees Fahrenheit F) This is an instantaneous reading 2 inch soil temperature at 7:00:00 standard time. | Soil Temperature Max at 4 inch depth (Degrees Fahrenheit F) that occurred during the day. | Time Max Soil temperature at 4 inches HH:MM:SS This is the time of max 4 inch soil temperature standard time. | Soil Temperature Min at 4 inch depth (Degrees Fahrenheit F) that occurred during the day. | Time Min Soil temperature at 4 inches HH:MM:SS This is the time of min 4 inch soil temperature standard time. | Soil Temperature Observed at 4 inch depth (Degrees Fahrenheit F) This is an instantaneous reading 4 inch soil temperature at 7:00:00 standard time. | DD50 Degree Days 50 Fahrenheit. | Adjusted DD50 Degree Days 50 Fahrenheit adjusted for latitude. | DD60 Degree Days 60 Fahrenheit. |
|---|---|---|---|---|---|---|---|---|---|---|---|---|---|---|---|---|---|---|---|---|---|---|---|---|---|---|---|---|---|---|
| 07/31/2026 | 212 | 96 | 13:36:02 | 75 | 3:53:04 | 83 | 100 | 4:58:00 | 54 | 13:37:03 | 88 | 0 | 69 | 2.9 | 211 | 482 | 101 | 15:50:00 | 87 | 6:06:01 | 88 | 99 | 16:32:00 | 89 | 6:42:03 | 89 | 35.5 | 27.21 | 25.5 | |
| 08/01/2026 | 213 | 97 | 15:23:00 | 70 | 23:48:02 | 82 | 91 | 0:19:01 | 43 | 15:22:01 | 81 | 0 | 127 | 5.3 | 266 | 555 | 98 | 16:57:05 | 83 | 6:07:01 | 84 | 99 | 16:59:00 | 89 | 7:03:05 | 89 | 33.5 | 27.17 | 23.5 | |
| 08/02/2026 | 214 | 84 | 16:25:05 | 69 | 1:38:03 | 74 | 95 | 23:30:02 | 63 | 16:26:05 | 85 | 0 | 73 | 3.0 | 316 | 306 | 89 | 16:50:05 | 80 | 6:49:05 | 81 | 91 | 17:43:03 | 86 | 7:37:05 | 86 | 26.5 | 27.14 | 16.5 | |
| 08/03/2026 | 215 | 91 | 15:03:01 | 66 | 5:17:02 | 75 | 99 | 5:45:04 | 49 | 15:03:03 | 89 | 0 | 58 | 2.4 | 350 | 601 | 96 | 16:10:04 | 77 | 6:10:02 | 77 | 97 | 16:51:02 | 82 | 6:56:02 | 82 | 28.5 | 27.11 | 18.5 | |
| 08/04/2026 | 216 | 92 | 15:05:04 | 67 | 5:15:05 | 76 | 98 | 5:34:05 | 37 | 15:15:05 | 88 | 0 | 51 | 2.1 | 9 | 605 | 98 | 15:27:05 | 78 | 6:20:04 | 79 | 97 | 16:16:00 | 84 | 6:49:02 | 84 | 29.5 | 27.08 | 19.5 | |
| 08/05/2026 | 217 | 97 | 12:54:04 | 67 | 3:47:03 | 76 | 97 | 4:34:00 | 36 | 12:14:04 | 84 | 0 | 30 | 1.2 | 49 | 555 | 98 | 15:56:01 | 78 | 6:20:02 | 79 | 98 | 17:09:01 | 84 | 7:01:05 | 84 | 32 | 27.05 | 22 | |
| 08/06/2026 | 218 | 97 | 14:17:05 | 69 | 4:52:04 | 78 | 97 | 5:04:01 | 37 | 14:16:05 | 79 | 0 | 52 | 2.2 | 136 | 528 | 97 | 15:44:03 | 80 | 6:24:03 | 80 | 98 | 17:06:03 | 85 | 7:13:03 | 85 | 33 | 27.01 | 23 | |
| 08/07/2026 | 219 | 95 | 12:17:05 | 71 | 4:01:01 | 78 | 99 | 5:59:04 | 54 | 12:11:03 | 93 | 0 | 68 | 2.9 | 188 | 573 | 98 | 14:27:00 | 81 | 6:14:04 | 81 | 98 | 16:20:02 | 86 | 6:57:02 | 86 | 33 | 26.98 | 23 | |
| 08/08/2026 | 220 | 97 | 16:40:00 | 72 | 5:39:05 | 80 | 98 | 5:53:04 | 45 | 17:04:03 | 87 | 0 | 56 | 2.3 | 214 | 513 | 98 | 14:12:05 | 82 | 6:12:04 | 82 | 98 | 17:02:05 | 86 | 6:48:03 | 86 | 34.5 | 26.95 | 24.5 | |
| 08/09/2026 | 221 | 97 | 15:28:01 | 71 | 5:34:01 | 80 | 98 | 5:50:02 | 46 | 15:25:04 | 86 | 0 | 56 | 2.3 | 186 | 550 | 101 | 15:30:04 | 82 | 6:18:04 | 82 | 100 | 16:00:00 | 87 | 7:09:03 | 87 | 34 | 26.91 | 24 | |
| 08/10/2026 | 222 | 98 | 13:20:03 | 73 | 3:56:05 | 79 | 98 | 4:13:04 | 48 | 14:25:00 | 90 | 0.31 | 57 | 2.4 | 167 | 466 | 100 | 13:48:03 | 83 | 23:59:05 | 83 | 99 | 15:08:05 | 87 | 7:17:03 | 87 | 35.5 | 26.88 | 25.5 | |
| 08/11/2026 | 223 | 93 | 16:01:01 | 74 | 3:49:00 | 78 | 99 | 4:28:01 | 52 | 16:01:04 | 95 | 0 | 83 | 3.5 | 199 | 582 | 97 | 15:07:04 | 80 | 6:41:01 | 80 | 96 | 16:32:02 | 84 | 7:05:02 | 84 | 33.5 | 26.85 | 23.5 | |
| 08/12/2026 | 224 | 96 | 13:33:05 | 75 | 4:36:00 | 81 | 95 | 4:40:01 | 43 | 14:41:02 | 89 | 0 | 81 | 3.4 | 211 | 603 | 100 | 15:11:00 | 81 | 6:14:00 | 82 | 99 | 16:38:02 | 85 | 6:49:02 | 85 | 35.5 | 26.81 | 25.5 | |
| 08/13/2026 | 225 | 97 | 15:32:02 | 76 | 4:46:04 | 81 | 94 | 4:50:03 | 45 | 14:46:04 | 86 | 0 | 85 | 3.5 | 204 | 610 | 101 | 15:22:04 | 83 | 6:22:00 | 83 | 100 | 16:20:02 | 87 | 7:05:02 | 87 | 36.5 | 26.78 | 26.5 | |
| 08/14/2026 | 226 | 98 | 16:07:03 | 74 | 23:53:03 | 81 | 94 | 5:44:02 | 37 | 17:20:04 | 87 | 0 | 71 | 3.0 | 213 | 609 | 102 | 15:11:05 | 83 | 6:19:04 | 84 | 100 | 16:35:00 | 87 | 7:05:04 | 87 | 36 | 26.75 | 26 | |
| 08/15/2026 | 227 | 100 | 14:14:02 | 70 | 5:32:05 | 81 | 95 | 5:54:04 | 40 | 16:41:05 | 84 | 0 | 66 | 2.7 | 196 | 602 | 103 | 15:38:04 | 82 | 6:22:01 | 83 | 101 | 16:39:00 | 87 | 7:15:00 | 87 | 35 | 26.71 | 25 | |
| 08/16/2026 | 228 | 103 | 15:02:05 | 74 | 5:33:04 | 83 | 93 | 5:38:03 | 35 | 16:19:00 | 83 | 0 | 67 | 2.8 | 230 | 590 | 103 | 15:46:01 | 84 | 6:26:03 | 84 | 102 | 16:44:01 | 89 | 7:11:04 | 89 | 38.5 | 26.68 | 28.5 | |
| 08/17/2026 | 229 | 104 | 15:26:01 | 77 | 23:59:05 | 83 | 88 | 23:50:03 | 29 | 15:30:05 | 76 | 0 | 96 | 4.0 | 279 | 442 | 99 | 15:50:04 | 86 | 6:07:02 | 86 | 99 | 17:06:02 | 90 | 7:31:03 | 90 | 40.5 | 26.64 | 30.5 | |
| 08/18/2026 | 230 | 100 | 15:53:01 | 74 | 4:35:05 | 79 | 96 | 5:58:05 | 37 | 15:53:05 | 90 | 0 | 51 | 2.1 | 317 | 409 | 97 | 12:50:00 | 84 | 6:25:03 | 85 | 97 | 17:36:00 | 88 | 7:45:03 | 88 | 37 | 26.61 | 27 | |
| 08/19/2026 | 231 | 102 | 15:41:01 | 75 | 5:11:01 | 82 | 92 | 5:15:03 | 38 | 16:00:01 | 80 | 0 | 79 | 3.3 | 211 | 576 | 103 | 15:09:04 | 84 | 6:19:00 | 84 | 101 | 16:30:02 | 88 | 7:16:02 | 88 | 38.5 | 26.57 | 28.5 | |
| 08/20/2026 | 232 | 104 | 14:38:03 | 74 | 5:16:02 | 83 | 93 | 5:23:00 | 36 | 14:07:05 | 80 | 0 | 96 | 4.0 | 235 | 509 | 104 | 15:04:05 | 85 | 6:29:00 | 85 | 101 | 15:42:04 | 89 | 7:07:00 | 89 | 39 | 26.54 | 29 | |
| 08/21/2026 | 233 | 99 | 12:22:05 | 73 | 5:50:04 | 80 | 93 | 5:53:05 | 40 | 16:06:05 | 81 | 0 | 78 | 3.3 | 26 | 559 | 102 | 15:34:04 | 84 | 6:45:05 | 84 | 100 | 16:15:03 | 89 | 7:22:05 | 89 | 36 | 26.5 | 26 | |
| 08/22/2026 | 234 | 103 | 14:44:04 | 67 | 5:30:01 | 78 | 97 | 23:28:02 | 30 | 14:00:03 | 82 | 0.15 | 74 | 3.1 | 353 | 568 | 103 | 15:22:04 | 83 | 6:32:03 | 83 | 101 | 16:32:00 | 87 | 7:19:00 | 87 | 35 | 26.47 | 25 | |
| 08/23/2026 | 235 | 97 | 16:06:04 | 72 | 5:40:03 | 76 | 98 | 5:53:00 | 43 | 16:06:04 | 92 | 0.09 | 78 | 3.3 | 21 | 586 | 99 | 15:01:00 | 81 | 6:30:05 | 81 | 98 | 16:39:01 | 86 | 7:22:05 | 86 | 34.5 | 26.43 | 24.5 | |
| 08/24/2026 | 236 | 83 | 16:19:05 | 72 | 23:51:02 | 73 | 99 | 23:42:05 | 75 | 6:14:00 | 95 | 0.53 | 73 | 3.0 | 324 | 163 | 86 | 0:00:00 | 79 | 23:58:04 | 82 | 90 | 0:00:00 | 83 | 23:59:04 | 86 | 27.5 | 26.4 | 17.5 | |
| 08/25/2026 | 237 | 95 | 16:09:03 | 72 | 1:42:04 | 75 | 100 | 5:38:04 | 49 | 16:10:02 | 99 | 0.02 | 43 | 1.8 | 178 | 399 | 89 | 16:02:03 | 78 | 5:20:04 | 78 | 89 | 16:43:02 | 81 | 7:21:04 | 81 | 33.5 | 26.36 | 23.5 | |
| 08/26/2026 | 238 | 100 | 13:08:00 | 71 | 22:42:05 | 79 | 97 | 5:43:04 | 38 | 15:40:01 | 91 | 0.04 | 91 | 3.8 | 243 | 554 | 98 | 15:18:03 | 79 | 5:53:03 | 79 | 95 | 16:24:04 | 82 | 6:51:05 | 82 | 35.5 | 26.33 | 25.5 | |
| 08/27/2026 | 239 | 96 | 15:17:00 | 71 | 5:15:01 | 74 | 99 | 5:39:02 | 40 | 13:41:00 | 96 | 0 | 58 | 2.4 | 345 | 497 | 96 | 15:49:02 | 79 | 6:13:05 | 79 | 94 | 16:45:05 | 82 | 7:19:04 | 82 | 33.5 | 26.29 | 23.5 | |
| 08/28/2026 | 240 | 98 | 13:56:01 | 71 | 5:53:03 | 78 | 98 | 6:07:05 | 32 | 17:13:04 | 90 | 0 | 86 | 3.6 | 30 | 522 | 98 | 15:10:03 | 79 | 6:38:05 | 79 | 95 | 15:32:02 | 83 | 7:26:03 | 83 | 34.5 | 26.26 | 24.5 | |
| 08/29/2026 | 241 | 97 | 15:09:02 | 64 | 4:56:05 | 74 | 93 | 5:00:01 | 27 | 16:41:01 | 75 | 0 | 55 | 2.3 | 23 | 576 | 97 | 15:19:04 | 78 | 6:45:04 | 78 | 96 | 16:54:05 | 82 | 7:08:02 | 82 | 30.5 | 26.22 | 20.5 | |
| Average | 96.87 | 71.53 | 78.67 | 96.1 | 42.6 | 86.7 | 0.04 | 70.27 | 523 | 98.37 | 81.43 | 81.83 | 97.6 | 85.8 | 85.9 | 34.2 | 26.72 | 24.2 | ||||||||||||
| Total | 1.14 | 1026 | 801.69 | 726 |